首页
METAR-TAF:

METAR-TAF

机场 :

Belleville, 伊利诺伊州, 美国

纬度: 38-33N, 经度: 089-51W, 海拔: 140米

当前天气观测

该预报发布于26分钟前的18:37 UTC
风速5节,风向南转南东
温度 21°C
湿度 88%
气压 1006 hPa
能見度: 12.9公里
散云层高于5500英尺
小雨, 附近有雷暴

METAR: KBLV 281837Z 16005KT 8SM -RA VCTS SCT055 21/19 A2971 RMK AO2A DZB07E12RAB12 TSB18E37 PRESRR SLP061 $

时间: 14:03 (19:03 UTC)

预报

该预报发布于1小时和0分钟前的18:03 UTC
预报有效从28日的 18点(UTC)到 29日的 22点(UTC)
风速9节,风向南转西南
能見度: 9000
阴天层高于2000英尺, 积雨云.
小阵雨, 附近有雷暴
成为
从 28日的 18点(UTC)到 28日的 20点(UTC)
风速30节,风向西南,有时为50节阵风
能見度: 6000
阴天层高于2000英尺, 积雨云.
雷暴, 雨, 冰雹
成为
从 29日的 03点(UTC)到 29日的 04点(UTC)
风速15节,风向西转西南
能见度10公里或以上
散云层高于5000英尺
成为
从 29日的 14点(UTC)到 29日的 15点(UTC)
风速25节,风向西,有时为35节阵风
能见度10公里或以上
多云层高于3000英尺

TAF: KBLV 281803Z 2818/2922 20009KT 9000 -SHRA VCTS OVC020CB QNH2964INS BECMG 2818/2820 22030G50KT 6000 TSRAGR OVC020CB QNH2958INS BECMG 2903/2904 25015KT 9999 NSW SCT050 QNH2962INS BECMG 2914/2915 27025G35KT 9999 BKN030 510005 QNH2980INS TX24/2818Z TN12/2912Z

超过4000个机场的气象观测和天气预报(METAR&TAF报告)。

可查询的气象台以黄色和红色小点在地图上表示。

将鼠标移到小点上方,可查看气象台名称。

然后点击查看天气观测和预报。

如需切换地图:点击带黑十字的绿色按钮放大地图;点击带横线的绿色按钮缩小地图;或者点击绿色箭头查看邻近地区的地图。


METAR-TAF: